^^
Station Historical Data
Daily Summary for May 12, 2017 Units:  English    Metric   Both
« Previous Day
Next Day »
Daily Weekly Monthly Yearly Custom
  High: Low: Average:
Temperature: 62.0 °F 41.9 °F 52.4 °F
Dew Point: 47.4 °F 39.8 °F 43.5 °F
Humidity: 94% 53% 73%
Wind Speed: 9.0mph 0.0mph 1.1mph
Wind Gust: 17.0mph - -
Wind- - SW
Pressure: 30.09 in 30.02 in -
Precipitation: 0.00 in    
Historical Graphs
 
 
Tabular Data for May 12, 2017
Time Temperature Dew Point Pressure Wind Wind Speed Wind Gust Humidity Rainfall Rate (Hourly) Conditions
00:00 47.2 °F 41.3 °F 30.05 in Calm   1.0 mph 80% 0.00 in CLR
00:15 46.8 °F 41.3 °F 30.05 in Calm     81% 0.00 in CLR
00:30 46.7 °F 41.2 °F 30.06 in Calm   1.0 mph 81% 0.00 in CLR
00:45 46.7 °F 41.2 °F 30.06 in Calm   1.0 mph 81% 0.00 in CLR
01:00 46.7 °F 41.5 °F 30.05 in Calm   1.0 mph 82% 0.00 in CLR
02:15 46.6 °F 42.0 °F 30.06 in Calm   1.0 mph 84% 0.00 in CLR
02:30 45.7 °F 41.5 °F 30.07 in Calm   1.0 mph 85% 0.00 in CLR
02:45 45.6 °F 41.7 °F 30.07 in Calm     86% 0.00 in CLR
03:00 45.1 °F 41.2 °F 30.07 in Calm   1.0 mph 86% 0.00 in CLR
03:15 44.9 °F 41.6 °F 30.07 in Calm   1.0 mph 88% 0.00 in CLR
03:30 44.5 °F 41.5 °F 30.07 in Calm   1.0 mph 89% 0.00 in CLR
03:45 44.2 °F 41.2 °F 30.07 in Calm     89% 0.00 in CLR
04:00 44.2 °F 41.2 °F 30.07 in Calm     89% 0.00 in CLR
04:15 44.0 °F 41.0 °F 30.07 in Calm   1.0 mph 89% 0.00 in CLR
04:45 44.4 °F 41.9 °F 30.06 in Calm     91% 0.00 in CLR
05:00 43.6 °F 40.9 °F 30.07 in Calm     90% 0.00 in CLR
05:15 43.3 °F 40.6 °F 30.07 in Calm     90% 0.00 in OVC
05:30 42.2 °F 39.8 °F 30.07 in Calm     91% 0.00 in OVC
05:45 42.6 °F 40.4 °F 30.07 in Calm     92% 0.00 in OVC
06:00 42.2 °F 40.0 °F 30.07 in Calm     92% 0.00 in OVC
06:15 42.3 °F 40.4 °F 30.08 in Calm     93% 0.00 in SCT
06:30 42.1 °F 40.2 °F 30.08 in Calm     93% 0.00 in SCT
06:45 41.9 °F 40.1 °F 30.09 in Calm     93% 0.00 in SCT
07:00 43.0 °F 41.4 °F 30.09 in Calm     94% 0.00 in SCT
07:15 43.7 °F 41.8 °F 30.09 in Calm     93% 0.00 in FEW
07:30 45.4 °F 43.2 °F 30.08 in Calm   1.0 mph 92% 0.00 in FEW
07:45 47.0 °F 43.7 °F 30.09 in Calm   2.0 mph 88% 0.00 in FEW
08:00 49.9 °F 44.6 °F 30.09 in Calm   1.0 mph 82% 0.00 in FEW
08:15 51.8 °F 44.8 °F 30.09 in East 1.0 mph 2.0 mph 77% 0.00 in FEW
08:30 52.4 °F 44.3 °F 30.09 in Calm   4.0 mph 74% 0.00 in FEW
08:45 53.1 °F 44.3 °F 30.09 in NNE 1.0 mph 4.0 mph 72% 0.00 in FEW
09:00 52.7 °F 45.0 °F 30.08 in WSW 1.0 mph 3.0 mph 75% 0.00 in FEW
09:15 52.3 °F 45.0 °F 30.09 in West 1.0 mph 4.0 mph 76% 0.00 in BKN
09:30 53.3 °F 45.2 °F 30.09 in WSW 1.0 mph 4.0 mph 74% 0.00 in BKN
09:45 52.9 °F 45.2 °F 30.08 in WSW 1.0 mph 4.0 mph 75% 0.00 in BKN
10:15 53.6 °F 45.5 °F 30.08 in NNW 1.0 mph 3.0 mph 74% 0.00 in BKN
10:30 55.2 °F 46.3 °F 30.08 in SW 1.0 mph 5.0 mph 72% 0.00 in BKN
10:45 56.2 °F 45.8 °F 30.08 in West 2.0 mph 5.0 mph 68% 0.00 in BKN
11:00 57.3 °F 46.0 °F 30.07 in WNW 2.0 mph 7.0 mph 66% 0.00 in BKN
11:15 58.5 °F 46.8 °F 30.07 in WNW 2.0 mph 6.0 mph 65% 0.00 in BKN
11:30 59.1 °F 47.4 °F 30.07 in Calm   8.0 mph 65% 0.00 in BKN
11:45 59.1 °F 46.9 °F 30.07 in SW 3.0 mph 6.0 mph 64% 0.00 in BKN
12:00 60.0 °F 47.0 °F 30.07 in Calm   6.0 mph 62% 0.00 in BKN
12:15 58.0 °F 45.9 °F 30.07 in West 2.0 mph 5.0 mph 64% 0.00 in BKN
12:30 58.3 °F 45.4 °F 30.06 in SW 1.0 mph 6.0 mph 62% 0.00 in BKN
12:45 59.4 °F 45.9 °F 30.06 in South 2.0 mph 8.0 mph 61% 0.00 in BKN
13:00 59.3 °F 45.4 °F 30.06 in West 2.0 mph 13.0 mph 60% 0.00 in BKN
13:15 59.6 °F 44.8 °F 30.06 in WSW 5.0 mph 8.0 mph 58% 0.00 in SCT
13:30 59.1 °F 44.8 °F 30.05 in SSW 2.0 mph 7.0 mph 59% 0.00 in SCT
13:45 59.9 °F 43.6 °F 30.06 in SSE 5.0 mph 9.0 mph 55% 0.00 in SCT
14:00 60.4 °F 44.1 °F 30.05 in SSW 3.0 mph 12.0 mph 55% 0.00 in SCT
14:15 60.5 °F 44.2 °F 30.05 in WSW 2.0 mph 12.0 mph 55% 0.00 in FEW
14:30 60.3 °F 44.1 °F 30.04 in South 6.0 mph 12.0 mph 55% 0.00 in FEW
14:45 60.4 °F 44.2 °F 30.04 in SSW 1.0 mph 12.0 mph 55% 0.00 in FEW
15:00 62.0 °F 44.7 °F 30.04 in SSE 2.0 mph 8.0 mph 53% 0.00 in FEW
15:15 61.3 °F 44.5 °F 30.03 in SW 1.0 mph 12.0 mph 54% 0.00 in FEW
15:30 60.8 °F 43.6 °F 30.03 in SSW 2.0 mph 7.0 mph 53% 0.00 in FEW
15:45 61.1 °F 44.3 °F 30.02 in NW 1.0 mph 8.0 mph 54% 0.00 in FEW
16:00 60.3 °F 43.6 °F 30.03 in SSE 2.0 mph 9.0 mph 54% 0.00 in FEW
16:15 60.7 °F 43.9 °F 30.03 in South 1.0 mph 6.0 mph 54% 0.00 in FEW
16:30 60.7 °F 44.0 °F 30.03 in SW 1.0 mph 9.0 mph 54% 0.00 in FEW
16:45 61.7 °F 44.3 °F 30.02 in SW 1.0 mph 5.0 mph 53% 0.00 in FEW
17:00 59.5 °F 44.7 °F 30.03 in SW 9.0 mph 17.0 mph 58% 0.00 in FEW
17:15 57.9 °F 45.3 °F 30.03 in SW 2.0 mph 15.0 mph 63% 0.00 in FEW
17:30 56.8 °F 44.3 °F 30.03 in SW 6.0 mph 15.0 mph 63% 0.00 in FEW
17:45 56.8 °F 44.7 °F 30.03 in SSW 5.0 mph 13.0 mph 64% 0.00 in FEW
18:00 57.7 °F 44.3 °F 30.03 in SW 3.0 mph 12.0 mph 61% 0.00 in FEW
18:15 57.3 °F 44.4 °F 30.03 in SSW 3.0 mph 8.0 mph 62% 0.00 in SCT
18:30 56.7 °F 44.2 °F 30.03 in SSW 1.0 mph 8.0 mph 63% 0.00 in SCT
18:45 55.8 °F 44.2 °F 30.03 in Calm   8.0 mph 65% 0.00 in SCT
19:00 54.9 °F 43.8 °F 30.03 in SW 2.0 mph 8.0 mph 66% 0.00 in SCT
19:15 54.3 °F 43.6 °F 30.04 in South 1.0 mph 7.0 mph 67% 0.00 in SCT
19:30 53.9 °F 43.6 °F 30.04 in SSW 2.0 mph 5.0 mph 68% 0.00 in SCT
19:45 53.6 °F 43.7 °F 30.04 in SW 2.0 mph 4.0 mph 69% 0.00 in SCT
20:00 53.1 °F 43.6 °F 30.04 in SSW 2.0 mph 3.0 mph 70% 0.00 in SCT
20:15 52.6 °F 43.5 °F 30.04 in Calm   3.0 mph 71% 0.00 in FEW
20:30 52.1 °F 43.3 °F 30.04 in Calm   2.0 mph 72% 0.00 in FEW
20:45 51.7 °F 43.3 °F 30.04 in Calm   4.0 mph 73% 0.00 in FEW
21:00 51.2 °F 43.2 °F 30.04 in SW 1.0 mph 4.0 mph 74% 0.00 in FEW
21:15 51.0 °F 43.3 °F 30.04 in SSW 1.0 mph 3.0 mph 75% 0.00 in FEW
21:30 50.7 °F 43.0 °F 30.04 in Calm   1.0 mph 75% 0.00 in FEW
21:45 50.4 °F 43.1 °F 30.04 in Calm   1.0 mph 76% 0.00 in FEW
22:00 50.0 °F 43.4 °F 30.04 in Calm   1.0 mph 78% 0.00 in FEW
22:15 49.8 °F 43.5 °F 30.04 in Calm   1.0 mph 79% 0.00 in FEW
22:30 49.7 °F 43.8 °F 30.04 in Calm   1.0 mph 80% 0.00 in FEW
22:45 49.9 °F 44.0 °F 30.04 in Calm   1.0 mph 80% 0.00 in FEW
23:00 50.2 °F 44.3 °F 30.04 in Calm   3.0 mph 80% 0.00 in FEW
23:15 50.4 °F 44.5 °F 30.04 in Calm   2.0 mph 80% 0.00 in FEW
23:30 50.4 °F 44.8 °F 30.03 in Calm   2.0 mph 81% 0.00 in FEW
23:45 50.4 °F 44.8 °F 30.04 in Calm   3.0 mph 81% 0.00 in FEW
TarryTown NY Weather
Compliments of Weather Underground - 1.5 mb